Time;durP1;ratioP1;P1;durP2;ratioP2;P2;SDS_P1;SDS_P2;PMS_P1;PMS_P2;Temp;Humidity;BMP_temperature;BMP_pressure;BME280_temperature;BME280_humidity;BME280_pressure;Samples;Min_cycle;Max_cycle;Signal;HPM_P1;HPM_P2
2021/12/14 00:02:13;;;;;;;20.38;13.65;;;2.20;91.70;;;;;;5067443;28;20024;-66
2021/12/14 00:04:40;;;;;;;19.92;13.15;;;2.20;91.70;;;;;;5057377;28;20107;-66
2021/12/14 00:07:10;;;;;;;19.35;12.88;;;2.10;91.80;;;;;;5061668;28;20543;-65
2021/12/14 00:09:40;;;;;;;20.58;12.63;;;2.10;92.10;;;;;;5057076;28;20036;-65
2021/12/14 00:15:11;;;;;;;20.30;13.18;;;2.10;91.80;;;;;;5061010;28;20075;-65
2021/12/14 00:17:53;;;;;;;21.65;14.00;;;2.10;91.80;;;;;;5056510;28;20025;-66
2021/12/14 00:20:22;;;;;;;20.88;13.25;;;2.10;91.70;;;;;;5062886;28;20051;-65
2021/12/14 00:25:26;;;;;;;19.63;12.63;;;2.10;91.90;;;;;;5060313;28;20036;-65
2021/12/14 00:27:52;;;;;;;;;;;2.00;91.90;;;;;;5071975;28;20391;-64
2021/12/14 00:30:18;;;;;;;20.08;12.93;;;2.00;91.80;;;;;;5071386;28;19904;-64
2021/12/14 00:32:44;;;;;;;20.48;12.95;;;2.00;91.90;;;;;;5060910;28;20033;-65
2021/12/14 00:35:12;;;;;;;21.40;13.63;;;2.00;91.90;;;;;;5051469;28;20076;-65
2021/12/14 00:37:42;;;;;;;19.38;13.48;;;2.00;91.90;;;;;;5051376;28;20028;-65
2021/12/14 00:40:14;;;;;;;17.33;11.93;;;2.00;91.90;;;;;;5051490;28;20025;-65
2021/12/14 00:42:40;;;;;;;20.55;13.98;;;2.00;92.00;;;;;;5049924;28;20021;-66
2021/12/14 00:45:07;;;;;;;20.30;13.55;;;1.90;92.00;;;;;;5051267;28;20033;-66
2021/12/14 00:47:33;;;;;;;20.48;13.40;;;1.90;91.90;;;;;;5051320;28;20037;-65
2021/12/14 00:49:58;;;;;;;23.92;14.75;;;1.90;92.00;;;;;;5051694;28;20025;-64
2021/12/14 00:52:24;;;;;;;25.05;15.85;;;1.90;92.00;;;;;;5051106;28;20045;-65
2021/12/14 00:54:50;;;;;;;22.38;14.35;;;2.00;92.10;;;;;;5051395;28;20032;-66
2021/12/14 00:57:16;;;;;;;20.30;13.70;;;2.00;92.10;;;;;;5055548;28;20025;-64
2021/12/14 00:59:43;;;;;;;19.60;11.75;;;1.90;92.20;;;;;;5051162;28;20059;-64
2021/12/14 01:02:19;;;;;;;18.35;12.02;;;1.90;92.20;;;;;;5051227;28;20439;-65
2021/12/14 01:04:58;;;;;;;17.40;10.60;;;2.00;92.20;;;;;;5050875;28;20017;-65
2021/12/14 01:07:28;;;;;;;19.05;12.38;;;2.00;92.20;;;;;;5051087;28;20033;-65
2021/12/14 01:09:58;;;;;;;18.80;11.68;;;2.00;92.20;;;;;;5051314;28;20044;-66
2021/12/14 01:12:41;;;;;;;17.10;11.25;;;2.00;92.10;;;;;;5056483;28;20063;-64
2021/12/14 01:15:25;;;;;;;17.60;11.05;;;1.90;92.10;;;;;;5067146;28;20029;-65
2021/12/14 01:20:43;;;;;;;18.70;12.25;;;1.90;92.10;;;;;;5050803;28;20216;-66
2021/12/14 01:23:17;;;;;;;17.88;11.63;;;1.90;92.10;;;;;;5051031;28;20107;-65
2021/12/14 01:25:47;;;;;;;18.10;11.75;;;1.90;92.10;;;;;;5054728;28;20488;-65
2021/12/14 01:28:17;;;;;;;16.48;11.75;;;1.90;92.10;;;;;;5054850;28;20029;-64
2021/12/14 01:31:08;;;;;;;17.40;11.48;;;1.80;92.10;;;;;;5054694;28;20095;-65
2021/12/14 01:33:36;;;;;;;17.40;11.68;;;1.80;92.20;;;;;;5071760;28;20375;-64
2021/12/14 01:36:09;;;;;;;19.25;12.88;;;1.80;92.20;;;;;;5074533;28;20016;-64
2021/12/14 01:38:46;;;;;;;18.23;11.85;;;1.80;92.20;;;;;;5074491;28;20896;-64
2021/12/14 01:41:15;;;;;;;18.05;11.32;;;1.80;92.20;;;;;;5074448;28;20468;-65
2021/12/14 01:43:51;;;;;;;17.17;11.07;;;1.80;92.10;;;;;;5074459;28;20464;-65
2021/12/14 01:46:22;;;;;;;15.85;10.27;;;1.80;92.20;;;;;;5074468;28;20141;-65
2021/12/14 01:48:48;;;;;;;16.05;10.27;;;1.80;92.30;;;;;;5074385;28;20095;-65
2021/12/14 01:51:15;;;;;;;18.25;12.05;;;1.80;92.30;;;;;;5074197;28;20028;-64
2021/12/14 01:53:43;;;;;;;17.30;11.63;;;1.80;92.30;;;;;;5074267;28;20459;-65
2021/12/14 01:56:16;;;;;;;17.42;11.18;;;1.80;92.30;;;;;;5074376;28;20467;-65
2021/12/14 01:58:51;;;;;;;17.45;11.38;;;1.80;92.30;;;;;;5074129;28;20059;-64
2021/12/14 02:01:24;;;;;;;18.05;11.93;;;1.70;92.30;;;;;;5074073;28;20027;-65
2021/12/14 02:03:55;;;;;;;;;;;1.70;92.30;;;;;;5074500;28;20024;-65
2021/12/14 02:06:26;;;;;;;20.48;12.55;;;1.70;92.20;;;;;;5074113;28;20393;-64
2021/12/14 02:09:05;;;;;;;17.83;11.93;;;1.70;92.30;;;;;;5073951;28;20027;-65
2021/12/14 02:11:34;;;;;;;17.67;12.00;;;1.70;92.30;;;;;;5072657;28;20492;-65
2021/12/14 02:14:02;;;;;;;17.45;11.00;;;1.70;92.30;;;;;;5073561;28;20045;-65
2021/12/14 02:16:29;;;;;;;18.55;11.77;;;1.70;92.30;;;;;;5073686;28;20541;-64
2021/12/14 02:18:59;;;;;;;16.75;10.88;;;1.70;92.30;;;;;;5073749;28;20040;-65
2021/12/14 02:21:26;;;;;;;18.30;11.52;;;1.70;92.30;;;;;;5073722;28;20016;-64
2021/12/14 02:23:54;;;;;;;17.65;12.02;;;1.70;92.40;;;;;;5073511;28;20535;-65
2021/12/14 02:26:25;;;;;;;19.95;12.88;;;1.70;92.40;;;;;;5072407;28;20056;-64
2021/12/14 02:28:52;;;;;;;18.88;12.30;;;1.70;92.40;;;;;;5073625;28;20020;-64
2021/12/14 02:31:20;;;;;;;19.63;12.70;;;1.80;92.30;;;;;;5073610;28;20024;-64
2021/12/14 02:33:48;;;;;;;19.02;12.80;;;1.70;92.30;;;;;;5054395;28;20078;-64
2021/12/14 02:36:27;;;;;;;20.98;13.60;;;1.70;92.40;;;;;;5053215;28;20029;-64
2021/12/14 02:39:05;;;;;;;18.75;12.57;;;1.70;92.40;;;;;;5053261;28;20079;-65
2021/12/14 02:41:32;;;;;;;21.67;13.85;;;1.70;92.40;;;;;;5053515;28;20411;-64
2021/12/14 02:44:00;;;;;;;22.13;14.07;;;1.80;92.40;;;;;;5053369;28;20017;-64
2021/12/14 02:46:31;;;;;;;22.08;13.93;;;1.80;92.40;;;;;;5058090;28;20020;-65
2021/12/14 02:49:02;;;;;;;21.02;12.95;;;1.80;92.40;;;;;;5052223;28;20384;-65
2021/12/14 02:51:40;;;;;;;21.20;13.35;;;1.70;92.40;;;;;;5053427;28;20472;-64
2021/12/14 02:54:19;;;;;;;19.83;12.43;;;1.80;92.50;;;;;;5053129;28;20032;-65
2021/12/14 02:57:06;;;;;;;20.20;12.70;;;1.80;92.50;;;;;;5053227;28;20488;-65
2021/12/14 02:59:37;;;;;;;19.48;12.20;;;1.80;92.40;;;;;;5053094;28;20526;-64
2021/12/14 03:02:05;;;;;;;25.23;15.85;;;1.80;92.50;;;;;;5051949;28;20078;-64
2021/12/14 03:04:37;;;;;;;22.77;14.43;;;1.90;92.40;;;;;;5052929;28;20384;-64
2021/12/14 03:07:04;;;;;;;22.88;13.63;;;1.90;92.40;;;;;;5053046;28;20013;-65
2021/12/14 03:12:32;;;;;;;22.63;14.13;;;1.90;92.50;;;;;;5052767;28;20039;-66
2021/12/14 03:15:14;;;;;;;25.88;15.23;;;1.90;92.40;;;;;;5051613;28;20142;-64
2021/12/14 03:17:43;;;;;;;25.13;16.00;;;1.90;92.30;;;;;;5052837;28;20078;-65
2021/12/14 03:20:22;;;;;;;24.08;14.70;;;2.00;92.30;;;;;;5052536;28;20060;-64
2021/12/14 03:23:01;;;;;;;25.58;15.27;;;1.90;92.30;;;;;;5052684;28;20482;-66
2021/12/14 03:25:28;;;;;;;24.25;15.43;;;2.00;92.20;;;;;;5052660;28;20094;-64
2021/12/14 03:27:55;;;;;;;25.23;15.85;;;1.90;92.10;;;;;;5052661;28;20024;-65
2021/12/14 03:30:26;;;;;;;21.80;13.52;;;1.90;92.10;;;;;;5052375;28;20025;-64
2021/12/14 03:33:01;;;;;;;23.70;14.30;;;1.90;92.20;;;;;;5063483;28;20033;-64
2021/12/14 03:35:51;;;;;;;20.88;13.23;;;1.90;92.30;;;;;;5072382;28;20120;-65
2021/12/14 03:38:38;;;;;;;22.67;13.30;;;1.90;92.30;;;;;;5069668;28;20048;-65
2021/12/14 03:41:17;;;;;;;21.70;13.60;;;1.90;92.30;;;;;;5072197;28;20028;-64
2021/12/14 03:43:58;;;;;;;23.98;14.05;;;2.00;92.30;;;;;;5072214;28;20464;-65
2021/12/14 03:46:30;;;;;;;23.17;13.70;;;2.00;92.30;;;;;;5071389;28;20035;-65
2021/12/14 03:48:57;;;;;;;21.25;12.88;;;2.00;92.30;;;;;;5072092;28;20024;-66
2021/12/14 03:51:24;;;;;;;22.17;13.77;;;2.00;92.30;;;;;;5072092;28;20036;-64
2021/12/14 03:53:53;;;;;;;23.42;14.32;;;2.00;92.20;;;;;;5072005;28;20028;-65
2021/12/14 03:56:19;;;;;;;22.50;13.65;;;2.00;92.20;;;;;;5071787;28;20028;-65
2021/12/14 03:58:47;;;;;;;21.90;13.70;;;2.00;92.20;;;;;;5071637;28;20112;-65
2021/12/14 04:01:19;;;;;;;19.58;12.38;;;2.00;92.20;;;;;;5071745;28;20034;-64
2021/12/14 04:03:47;;;;;;;21.58;12.85;;;2.00;92.20;;;;;;5070451;28;20060;-65
2021/12/14 04:06:15;;;;;;;20.80;13.13;;;2.00;92.20;;;;;;5071808;28;20521;-65
2021/12/14 04:08:42;;;;;;;21.23;12.98;;;2.00;92.20;;;;;;5071630;28;20028;-65
2021/12/14 04:11:09;;;;;;;23.33;14.07;;;2.00;92.10;;;;;;5071675;28;20024;-64
2021/12/14 04:13:41;;;;;;;21.20;12.95;;;2.00;92.10;;;;;;5071450;28;20040;-65
2021/12/14 04:16:10;;;;;;;22.65;13.82;;;2.00;92.10;;;;;;5071649;28;20025;-64
2021/12/14 04:18:36;;;;;;;22.55;13.95;;;2.00;92.10;;;;;;5071367;28;20068;-65
2021/12/14 04:21:03;;;;;;;23.38;14.20;;;2.00;92.10;;;;;;5070160;28;20035;-65
2021/12/14 04:23:32;;;;;;;23.27;13.82;;;2.00;92.10;;;;;;5071504;28;20020;-64
2021/12/14 04:26:01;;;;;;;24.27;14.75;;;2.00;92.10;;;;;;5071543;28;20357;-64
2021/12/14 04:28:34;;;;;;;23.42;14.93;;;2.00;92.10;;;;;;5071423;28;20021;-63
2021/12/14 04:31:00;;;;;;;23.95;14.07;;;2.00;92.00;;;;;;5070004;28;20419;-65
2021/12/14 04:33:30;;;;;;;23.40;14.50;;;1.90;92.00;;;;;;5057107;28;20016;-65
2021/12/14 04:35:57;;;;;;;25.27;16.10;;;2.00;92.00;;;;;;5070376;28;20021;-64
2021/12/14 04:38:29;;;;;;;23.38;15.20;;;2.00;92.00;;;;;;5071147;28;20021;-64
2021/12/14 04:52:01;;;;;;;22.00;14.00;;;1.90;92.00;;;;;;5051075;28;20566;-66
2021/12/14 04:54:37;;;;;;;21.90;13.50;;;1.90;92.10;;;;;;5050938;28;20025;-65
2021/12/14 04:57:06;;;;;;;24.65;14.70;;;1.90;92.10;;;;;;5052271;28;20115;-65
2021/12/14 04:59:34;;;;;;;20.67;13.82;;;1.90;92.10;;;;;;5056042;28;20187;-65
2021/12/14 05:02:12;;;;;;;24.52;14.77;;;1.90;92.20;;;;;;5053698;28;20078;-65
2021/12/14 05:04:38;;;;;;;22.30;14.43;;;1.90;92.20;;;;;;5054903;28;20387;-65
2021/12/14 05:07:27;;;;;;;21.73;13.68;;;1.90;92.20;;;;;;5054971;28;20013;-67
2021/12/14 05:09:51;;;;;;;20.67;13.68;;;1.90;92.20;;;;;;5056073;28;20063;-65
2021/12/14 05:12:30;;;;;;;21.42;13.48;;;1.90;92.30;;;;;;5055850;28;20017;-66
2021/12/14 05:14:58;;;;;;;21.40;13.80;;;1.90;92.30;;;;;;5054908;28;20476;-66
2021/12/14 05:17:32;;;;;;;20.13;12.90;;;1.90;92.30;;;;;;5055074;28;20029;-64
2021/12/14 05:19:58;;;;;;;18.75;12.30;;;1.90;92.30;;;;;;5054826;28;20067;-65
2021/12/14 05:22:29;;;;;;;19.92;12.98;;;1.90;92.40;;;;;;5055812;28;20028;-66
2021/12/14 05:25:00;;;;;;;18.55;12.18;;;1.90;92.30;;;;;;5053538;28;20043;-66
2021/12/14 05:27:32;;;;;;;18.15;11.68;;;2.00;92.40;;;;;;5062443;28;20017;-65
2021/12/14 05:30:10;;;;;;;19.40;12.40;;;2.00;92.40;;;;;;5074787;28;20039;-65
2021/12/14 05:32:37;;;;;;;19.55;12.00;;;2.00;92.40;;;;;;5065185;28;20349;-66
2021/12/14 05:35:05;;;;;;;20.63;12.35;;;2.00;92.40;;;;;;5054419;28;20108;-65
2021/12/14 05:37:34;;;;;;;19.95;12.38;;;2.10;92.40;;;;;;5062016;28;20387;-66
2021/12/14 05:40:05;;;;;;;21.05;13.77;;;2.00;92.40;;;;;;5074330;28;20029;-67
2021/12/14 05:45:22;;;;;;;22.27;15.20;;;2.00;92.20;;;;;;5074311;28;20031;-65
2021/12/14 05:47:52;;;;;;;22.05;14.07;;;2.00;92.20;;;;;;5061548;28;20049;-65
2021/12/14 05:50:22;;;;;;;24.27;14.98;;;2.00;92.10;;;;;;5074205;28;20435;-67
2021/12/14 05:52:48;;;;;;;21.92;14.70;;;2.00;92.10;;;;;;5074040;28;20025;-65
2021/12/14 05:55:16;;;;;;;21.05;14.27;;;2.00;92.20;;;;;;5074243;28;20078;-65
2021/12/14 05:57:42;;;;;;;22.98;14.60;;;2.00;92.20;;;;;;5073798;28;20384;-66
2021/12/14 06:00:11;;;;;;;21.73;13.48;;;2.00;92.30;;;;;;5070043;28;20021;-66
2021/12/14 06:02:38;;;;;;;21.10;14.23;;;2.00;92.30;;;;;;5072022;28;20070;-65
2021/12/14 06:05:05;;;;;;;21.75;13.73;;;2.00;92.60;;;;;;5073899;28;20078;-65
2021/12/14 06:07:31;;;;;;;22.55;14.20;;;2.00;92.40;;;;;;5073486;28;20103;-66
2021/12/14 06:09:57;;;;;;;25.33;16.00;;;2.00;92.40;;;;;;5073258;28;20056;-65
2021/12/14 06:12:28;;;;;;;23.17;14.80;;;2.00;92.40;;;;;;5061316;28;20083;-65
2021/12/14 06:14:58;;;;;;;23.65;14.98;;;2.00;92.30;;;;;;5053670;28;20021;-66
2021/12/14 06:17:29;;;;;;;23.95;15.10;;;2.00;92.30;;;;;;5062476;28;20324;-65
2021/12/14 06:20:06;;;;;;;23.75;14.82;;;2.10;92.30;;;;;;5072578;28;20055;-66
2021/12/14 06:22:33;;;;;;;21.88;14.50;;;2.10;92.30;;;;;;5072327;28;20029;-65
2021/12/14 06:25:07;;;;;;;23.67;14.90;;;2.10;92.40;;;;;;5073446;28;20031;-66
2021/12/14 06:27:33;;;;;;;23.17;14.05;;;2.10;92.30;;;;;;5071419;28;20028;-66
2021/12/14 06:30:16;;;;;;;23.75;14.93;;;2.10;92.30;;;;;;5053606;28;20029;-65
2021/12/14 06:32:47;;;;;;;24.70;15.87;;;2.10;92.30;;;;;;5062796;28;20054;-65
2021/12/14 06:35:21;;;;;;;26.10;16.52;;;2.10;92.30;;;;;;5071897;28;20021;-66
2021/12/14 06:38:26;;;;;;;24.80;15.50;;;2.10;92.30;;;;;;5068793;28;20024;-65
2021/12/14 06:41:15;;;;;;;25.35;16.20;;;2.10;92.20;;;;;;5073271;28;20158;-65
2021/12/14 06:43:54;;;;;;;24.20;14.98;;;2.10;92.20;;;;;;5072734;28;20024;-66
2021/12/14 06:46:32;;;;;;;25.77;15.35;;;2.10;92.40;;;;;;5072875;28;20017;-66
2021/12/14 06:49:24;;;;;;;25.58;15.32;;;2.20;92.40;;;;;;5071538;28;20372;-65
2021/12/14 06:51:54;;;;;;;29.75;17.10;;;2.20;92.30;;;;;;5071364;28;20036;-66
2021/12/14 06:54:23;;;;;;;28.70;16.88;;;2.20;92.30;;;;;;5072914;28;20153;-66
2021/12/14 06:56:55;;;;;;;27.60;16.40;;;2.20;92.20;;;;;;5072942;28;20486;-66
2021/12/14 06:59:21;;;;;;;27.20;15.93;;;2.20;92.20;;;;;;5069127;28;20044;-66
2021/12/14 07:01:49;;;;;;;27.92;16.77;;;2.20;92.20;;;;;;5068048;28;20472;-66
2021/12/14 07:04:32;;;;;;;26.02;16.60;;;2.20;92.20;;;;;;5063435;28;20474;-65
2021/12/14 07:07:01;;;;;;;25.63;15.73;;;2.20;92.10;;;;;;5061743;28;20021;-64
2021/12/14 07:09:29;;;;;;;25.80;16.15;;;2.20;92.20;;;;;;5064339;28;20473;-66
2021/12/14 07:12:03;;;;;;;24.75;15.20;;;2.20;92.10;;;;;;5063195;28;20036;-66
2021/12/14 07:14:32;;;;;;;24.75;15.70;;;2.10;92.10;;;;;;5055883;28;20119;-67
2021/12/14 07:17:10;;;;;;;24.73;15.07;;;2.20;92.30;;;;;;5057734;28;20048;-66
2021/12/14 07:20:05;;;;;;;24.08;14.88;;;2.20;92.30;;;;;;5071342;28;20047;-66
2021/12/14 07:22:46;;;;;;;23.08;13.93;;;2.20;92.40;;;;;;5053621;28;20381;-65
2021/12/14 07:25:25;;;;;;;26.77;15.82;;;2.20;92.40;;;;;;5064628;28;20039;-67
2021/12/14 07:27:55;;;;;;;27.48;16.02;;;2.20;92.40;;;;;;5058987;28;20048;-64
2021/12/14 07:30:38;;;;;;;28.48;17.08;;;2.20;92.40;;;;;;5060022;28;20162;-65
2021/12/14 07:33:09;;;;;;;28.33;17.20;;;2.20;92.30;;;;;;5057311;28;20746;-66
2021/12/14 07:35:35;;;;;;;39.38;23.55;;;2.30;92.30;;;;;;5062985;28;20681;-64
2021/12/14 07:38:19;;;;;;;37.05;22.00;;;2.30;92.30;;;;;;5059460;28;20027;-66
2021/12/14 07:40:49;;;;;;;34.17;20.02;;;2.30;92.20;;;;;;5063661;28;20029;-66
2021/12/14 07:43:26;;;;;;;30.55;18.67;;;2.30;92.30;;;;;;5057069;28;20031;-66
2021/12/14 07:45:54;;;;;;;28.35;16.65;;;2.30;92.30;;;;;;5052102;28;20028;-66
2021/12/14 07:48:20;;;;;;;27.65;16.92;;;2.30;92.40;;;;;;5060491;28;20435;-65
2021/12/14 07:50:56;;;;;;;29.33;16.25;;;2.30;92.30;;;;;;5061612;28;20048;-65
2021/12/14 07:53:41;;;;;;;32.03;18.70;;;2.30;92.20;;;;;;5058628;28;20044;-66
2021/12/14 07:56:20;;;;;;;27.42;15.00;;;2.30;92.10;;;;;;5059266;28;20056;-66
2021/12/14 07:58:48;;;;;;;25.58;15.20;;;2.30;92.20;;;;;;5061084;28;20069;-66
2021/12/14 08:01:14;;;;;;;25.40;15.93;;;2.20;92.20;;;;;;5068050;28;20024;-65
2021/12/14 08:03:40;;;;;;;26.98;16.08;;;2.30;92.20;;;;;;5065888;28;20020;-66
2021/12/14 08:06:11;;;;;;;24.67;15.23;;;2.30;92.40;;;;;;5068445;28;20058;-65
2021/12/14 08:08:44;;;;;;;26.73;14.70;;;2.20;92.00;;;;;;5069590;28;20040;-67
2021/12/14 08:13:58;;;;;;;24.50;14.18;;;2.20;92.20;;;;;;5071090;28;20422;-66
2021/12/14 08:16:24;;;;;;;26.10;15.50;;;2.20;92.20;;;;;;5069994;28;20025;-66
2021/12/14 08:18:51;;;;;;;24.30;15.70;;;2.20;92.20;;;;;;5069664;28;20036;-66
2021/12/14 08:21:26;;;;;;;25.80;16.48;;;2.20;92.20;;;;;;5054652;28;20024;-65
2021/12/14 08:23:56;;;;;;;25.30;15.57;;;2.20;92.20;;;;;;5069596;28;20032;-66
2021/12/14 08:26:39;;;;;;;24.90;15.05;;;2.20;92.20;;;;;;5071111;28;20035;-67
2021/12/14 08:29:25;;;;;;;24.10;14.70;;;2.20;92.20;;;;;;5071073;28;20375;-67
2021/12/14 08:31:56;;;;;;;25.80;15.13;;;2.20;92.30;;;;;;5065529;28;20035;-66
2021/12/14 08:34:24;;;;;;;24.35;14.50;;;2.20;92.30;;;;;;5068007;28;20039;-66
2021/12/14 08:36:52;;;;;;;23.17;13.82;;;2.20;92.20;;;;;;5071255;28;20024;-65
2021/12/14 08:39:20;;;;;;;27.83;17.15;;;2.20;92.20;;;;;;5071263;28;20549;-66
2021/12/14 08:41:54;;;;;;;34.13;21.60;;;2.30;92.20;;;;;;5064324;28;20025;-65
2021/12/14 08:44:38;;;;;;;31.20;19.45;;;2.30;92.20;;;;;;5055932;28;20021;-65
2021/12/14 08:47:19;;;;;;;29.23;17.42;;;2.30;92.20;;;;;;5067626;28;20027;-66
2021/12/14 08:49:45;;;;;;;25.85;16.25;;;2.30;92.20;;;;;;5071284;28;20041;-66
2021/12/14 08:52:11;;;;;;;26.08;14.90;;;2.30;92.10;;;;;;5071353;28;20033;-65
2021/12/14 08:54:39;;;;;;;24.30;15.25;;;2.30;92.10;;;;;;5069383;28;20078;-65
2021/12/14 08:57:15;;;;;;;22.55;13.05;;;2.30;92.00;;;;;;5064652;28;20500;-66
2021/12/14 08:59:45;;;;;;;23.25;14.48;;;2.30;92.10;;;;;;5058812;28;20111;-67
2021/12/14 09:02:13;;;;;;;21.73;13.70;;;2.20;92.20;;;;;;5065574;28;20016;-65
2021/12/14 09:04:46;;;;;;;20.05;12.10;;;2.30;92.20;;;;;;5066727;28;20048;-66
2021/12/14 09:07:16;;;;;;;20.13;13.10;;;2.30;92.20;;;;;;5055939;28;20058;-66
2021/12/14 09:09:43;;;;;;;22.63;14.63;;;2.30;92.30;;;;;;5060602;28;20025;-66
2021/12/14 09:12:14;;;;;;;23.30;14.20;;;2.30;92.20;;;;;;5059557;28;20048;-66
2021/12/14 09:14:41;;;;;;;21.33;13.20;;;2.40;92.20;;;;;;5062289;28;20077;-66
2021/12/14 09:17:09;;;;;;;21.80;13.10;;;2.40;92.40;;;;;;5064099;28;20815;-65
2021/12/14 09:19:41;;;;;;;21.08;12.88;;;2.40;92.00;;;;;;5068682;28;20037;-65
2021/12/14 09:22:13;;;;;;;21.15;13.48;;;2.40;91.90;;;;;;5070739;28;20078;-66
2021/12/14 09:24:40;;;;;;;21.75;13.65;;;2.40;91.90;;;;;;5066384;28;20419;-65
2021/12/14 09:27:12;;;;;;;22.40;13.15;;;2.40;91.90;;;;;;5060388;28;20025;-65
2021/12/14 09:29:39;;;;;;;20.50;12.45;;;2.40;92.00;;;;;;5067050;28;20047;-67
2021/12/14 09:32:07;;;;;;;19.85;12.55;;;2.40;92.00;;;;;;5067327;28;20028;-65
2021/12/14 09:34:35;;;;;;;17.67;11.93;;;2.40;92.00;;;;;;5060548;28;20111;-66
2021/12/14 09:37:04;;;;;;;20.13;12.38;;;2.40;92.00;;;;;;5069829;28;20024;-66
2021/12/14 09:39:40;;;;;;;20.02;12.70;;;2.50;91.90;;;;;;5064529;28;20067;-66
2021/12/14 09:42:10;;;;;;;19.15;11.82;;;2.40;92.00;;;;;;5062940;28;20079;-67
2021/12/14 09:44:36;;;;;;;18.48;11.10;;;2.50;92.00;;;;;;5054415;28;20025;-66
2021/12/14 09:47:11;;;;;;;17.95;11.05;;;2.50;92.10;;;;;;5066144;28;20027;-65
2021/12/14 09:49:38;;;;;;;24.20;14.73;;;2.50;92.10;;;;;;5066709;28;20048;-67
2021/12/14 09:52:20;;;;;;;23.80;14.75;;;2.50;91.80;;;;;;5058703;28;20056;-67
2021/12/14 09:54:47;;;;;;;22.55;13.02;;;2.50;91.70;;;;;;5072008;28;20021;-65
2021/12/14 09:57:22;;;;;;;19.25;12.70;;;2.50;91.70;;;;;;5068985;28;20109;-66
2021/12/14 09:59:48;;;;;;;16.92;10.52;;;2.40;91.70;;;;;;5064878;28;20033;-66
2021/12/14 10:02:29;;;;;;;17.65;11.27;;;2.40;91.80;;;;;;5065777;28;20160;-66
2021/12/14 10:04:59;;;;;;;18.77;11.20;;;2.40;91.90;;;;;;5063227;28;20025;-65
2021/12/14 10:07:25;;;;;;;19.27;11.82;;;2.40;91.90;;;;;;5048464;28;20082;-65
2021/12/14 10:09:54;;;;;;;22.33;13.43;;;2.40;91.90;;;;;;5059030;28;20059;-66
2021/12/14 10:15:35;;;;;;;22.63;13.57;;;2.40;91.80;;;;;;5063408;28;20075;-66
2021/12/14 10:18:10;;;;;;;21.15;12.30;;;2.40;91.90;;;;;;5063959;28;20036;-67
2021/12/14 10:20:51;;;;;;;19.38;12.50;;;2.40;91.90;;;;;;5066351;28;20050;-67
2021/12/14 10:23:21;;;;;;;20.20;12.07;;;2.30;91.80;;;;;;5068941;28;20567;-66
2021/12/14 10:25:48;;;;;;;18.80;11.82;;;2.30;92.00;;;;;;5063659;28;20087;-66
2021/12/14 10:28:14;;;;;;;17.30;11.07;;;2.30;92.10;;;;;;5061032;28;20047;-65
2021/12/14 10:30:45;;;;;;;16.60;10.82;;;2.30;92.20;;;;;;5062009;28;20028;-65
2021/12/14 10:33:11;;;;;;;18.45;11.32;;;2.30;92.30;;;;;;5054946;28;20476;-66
2021/12/14 10:35:46;;;;;;;17.45;11.55;;;2.30;92.30;;;;;;5068485;28;20464;-68
2021/12/14 10:38:28;;;;;;;20.25;11.77;;;2.40;92.40;;;;;;5067365;28;20025;-67
2021/12/14 10:43:57;;;;;;;16.80;10.70;;;2.50;92.10;;;;;;5064903;28;20054;-66
2021/12/14 10:46:38;;;;;;;17.45;11.13;;;2.50;92.10;;;;;;5053068;28;20099;-67
2021/12/14 10:49:05;;;;;;;18.17;11.27;;;2.50;92.10;;;;;;5053049;28;20372;-66
2021/12/14 10:51:36;;;;;;;18.20;11.68;;;2.50;92.00;;;;;;5069644;28;20119;-67
2021/12/14 10:54:09;;;;;;;19.88;12.38;;;2.50;92.10;;;;;;5057691;28;20041;-66
2021/12/14 10:56:40;;;;;;;19.98;12.55;;;2.50;92.00;;;;;;5062303;28;20032;-66
2021/12/14 10:59:10;;;;;;;19.08;12.50;;;2.60;91.90;;;;;;5069766;28;20046;-68
2021/12/14 11:01:38;;;;;;;20.83;13.05;;;2.60;91.90;;;;;;5063181;28;20020;-66
2021/12/14 11:04:14;;;;;;;18.30;11.23;;;2.60;91.90;;;;;;5068935;28;20017;-66
2021/12/14 11:06:43;;;;;;;20.73;12.43;;;2.60;91.70;;;;;;5070466;28;20024;-65
2021/12/14 11:11:49;;;;;;;20.08;12.32;;;2.60;91.40;;;;;;5060026;28;20045;-66
2021/12/14 11:14:20;;;;;;;28.67;18.38;;;2.50;91.40;;;;;;5068765;28;20045;-66
2021/12/14 11:19:44;;;;;;;26.30;17.95;;;2.50;91.50;;;;;;5058970;28;20086;-65
2021/12/14 11:22:29;;;;;;;22.67;14.05;;;2.50;91.40;;;;;;5066066;28;20031;-66
2021/12/14 11:25:07;;;;;;;20.00;13.35;;;2.40;91.30;;;;;;5054564;28;20053;-65
2021/12/14 11:27:41;;;;;;;23.15;14.98;;;2.40;91.30;;;;;;5060834;28;20377;-65
2021/12/14 11:30:26;;;;;;;21.23;14.15;;;2.40;91.40;;;;;;5060040;28;20060;-66
2021/12/14 11:33:26;;;;;;;20.77;13.60;;;2.40;91.30;;;;;;5062647;28;20469;-66
2021/12/14 11:35:55;;;;;;;20.85;13.20;;;2.30;91.30;;;;;;5064723;28;20564;-66
2021/12/14 11:38:26;;;;;;;20.40;13.15;;;2.30;91.40;;;;;;5065807;28;20115;-66
2021/12/14 11:40:52;;;;;;;21.85;13.52;;;2.30;91.50;;;;;;5058308;28;20102;-66
2021/12/14 11:43:23;;;;;;;21.33;13.10;;;2.30;91.50;;;;;;5068446;28;20029;-65
2021/12/14 11:45:49;;;;;;;19.80;12.30;;;2.20;91.60;;;;;;5057420;28;20491;-67
2021/12/14 11:48:28;;;;;;;18.10;11.48;;;2.20;91.70;;;;;;5061921;28;20029;-67
2021/12/14 11:50:53;;;;;;;20.52;12.75;;;2.20;91.70;;;;;;5061235;28;20429;-68
2021/12/14 11:53:21;;;;;;;18.85;12.50;;;2.20;91.60;;;;;;5060315;28;20093;-67
2021/12/14 11:56:02;;;;;;;20.55;12.70;;;2.20;91.60;;;;;;5062368;28;20113;-67
2021/12/14 11:58:33;;;;;;;20.50;13.80;;;2.20;91.70;;;;;;5058821;28;20481;-67
2021/12/14 12:01:35;;;;;;;20.65;13.65;;;2.20;91.70;;;;;;5066345;28;20356;-67
2021/12/14 12:04:09;;;;;;;22.70;15.15;;;2.20;91.70;;;;;;5065763;28;20441;-68
2021/12/14 12:06:46;;;;;;;24.05;15.07;;;2.20;91.80;;;;;;5070652;28;20025;-67
2021/12/14 12:09:44;;;;;;;22.38;14.75;;;2.20;91.70;;;;;;5066875;28;20430;-66
2021/12/14 12:12:28;;;;;;;26.48;16.85;;;2.20;91.70;;;;;;5054065;28;20048;-66
2021/12/14 12:15:05;;;;;;;23.90;16.08;;;2.30;91.70;;;;;;5056825;28;20037;-66
2021/12/14 12:17:36;;;;;;;25.75;16.60;;;2.20;91.70;;;;;;5070249;28;20028;-66
2021/12/14 12:20:26;;;;;;;23.55;15.00;;;2.20;91.80;;;;;;5065932;28;20040;-65
2021/12/14 12:22:54;;;;;;;23.77;15.35;;;2.20;91.90;;;;;;5070815;28;20040;-67
2021/12/14 12:25:28;;;;;;;22.10;15.18;;;2.20;91.90;;;;;;5053520;28;20116;-66
2021/12/14 12:28:00;;;;;;;26.63;16.42;;;2.30;91.90;;;;;;5062653;28;20037;-66
2021/12/14 12:30:32;;;;;;;23.77;15.77;;;2.30;92.00;;;;;;5065747;28;20044;-65
2021/12/14 12:33:07;;;;;;;27.92;18.17;;;2.30;92.10;;;;;;5050236;28;20060;-65
2021/12/14 12:35:51;;;;;;;27.27;16.98;;;2.30;91.90;;;;;;5059361;28;20033;-63
2021/12/14 12:38:26;;;;;;;24.92;16.05;;;2.30;91.90;;;;;;5054908;28;20021;-65
2021/12/14 12:40:57;;;;;;;28.48;17.27;;;2.30;92.00;;;;;;5058426;28;20044;-66
2021/12/14 12:43:26;;;;;;;29.60;18.05;;;2.30;92.00;;;;;;5058808;28;20017;-65
2021/12/14 12:46:15;;;;;;;27.25;16.92;;;2.30;91.90;;;;;;5066440;28;20032;-65
2021/12/14 12:48:50;;;;;;;26.20;17.20;;;2.30;91.90;;;;;;5060587;28;20102;-66
2021/12/14 12:51:34;;;;;;;30.85;18.65;;;2.30;92.00;;;;;;5065209;28;20062;-66
2021/12/14 12:54:24;;;;;;;28.33;17.33;;;2.30;92.00;;;;;;5065177;28;20086;-65
2021/12/14 12:57:11;;;;;;;25.73;16.00;;;2.30;91.90;;;;;;5063685;28;20468;-64
2021/12/14 12:59:48;;;;;;;29.75;17.30;;;2.30;91.90;;;;;;5061200;28;20025;-65
2021/12/14 13:02:19;;;;;;;28.95;17.08;;;2.30;92.00;;;;;;5060046;28;20024;-65
2021/12/14 13:04:48;;;;;;;29.00;17.80;;;2.30;91.90;;;;;;5061211;28;20023;-67
2021/12/14 13:07:14;;;;;;;27.05;16.65;;;2.30;91.90;;;;;;5063241;28;20020;-66
2021/12/14 13:10:19;;;;;;;23.83;14.95;;;2.30;91.90;;;;;;5068379;28;20111;-66
2021/12/14 13:12:47;;;;;;;32.35;19.00;;;2.30;91.90;;;;;;5056257;28;20104;-66
2021/12/14 13:15:32;;;;;;;29.23;17.60;;;2.30;91.90;;;;;;5050693;28;20026;-67
2021/12/14 13:18:17;;;;;;;28.42;17.40;;;2.30;91.90;;;;;;5050881;28;20028;-66
2021/12/14 13:20:45;;;;;;;28.00;17.50;;;2.30;92.00;;;;;;5053387;28;20460;-64
2021/12/14 13:23:11;;;;;;;26.80;16.73;;;2.30;91.90;;;;;;5054620;28;20154;-65
2021/12/14 13:25:40;;;;;;;29.02;16.63;;;2.20;91.80;;;;;;5054734;28;20049;-65
2021/12/14 13:28:06;;;;;;;26.00;15.98;;;2.20;91.90;;;;;;5054704;28;20457;-68
2021/12/14 13:30:32;;;;;;;25.90;15.98;;;2.20;91.90;;;;;;5054654;28;20039;-67
2021/12/14 13:32:58;;;;;;;26.42;15.70;;;2.20;92.00;;;;;;5066489;28;20103;-65
2021/12/14 13:35:28;;;;;;;29.15;17.58;;;2.20;92.00;;;;;;5073411;28;20055;-65
2021/12/14 13:38:07;;;;;;;28.33;17.15;;;2.20;92.00;;;;;;5073387;28;20020;-65
2021/12/14 13:40:36;;;;;;;27.27;16.70;;;2.20;92.00;;;;;;5072954;28;20032;-65
2021/12/14 13:43:11;;;;;;;29.65;17.10;;;2.20;92.00;;;;;;5074256;28;20048;-67
2021/12/14 13:45:59;;;;;;;34.45;18.55;;;2.10;92.00;;;;;;5074460;28;20067;-65